sensor_id;sensor_type;location;lat;lon;timestamp;pressure;altitude;pressure_sealevel;temperature;humidity
16544;BME280;8384;47.996;7.786;2022-07-22T00:01:43;99107.22;;;20.68;64.76
16544;BME280;8384;47.996;7.786;2022-07-22T00:04:09;99106.22;;;20.64;65.33
16544;BME280;8384;47.996;7.786;2022-07-22T00:06:34;99107.16;;;20.51;65.76
16544;BME280;8384;47.996;7.786;2022-07-22T00:08:59;99095.06;;;20.56;65.32
16544;BME280;8384;47.996;7.786;2022-07-22T00:11:25;99098.31;;;20.49;65.62
16544;BME280;8384;47.996;7.786;2022-07-22T00:13:50;99101.00;;;20.40;66.17
16544;BME280;8384;47.996;7.786;2022-07-22T00:16:16;99095.06;;;20.24;66.40
16544;BME280;8384;47.996;7.786;2022-07-22T00:18:41;99080.06;;;20.25;66.29
16544;BME280;8384;47.996;7.786;2022-07-22T00:21:07;99096.56;;;20.30;66.54
16544;BME280;8384;47.996;7.786;2022-07-22T00:23:32;99079.59;;;20.32;66.23
16544;BME280;8384;47.996;7.786;2022-07-22T00:25:58;99090.06;;;20.35;66.52
16544;BME280;8384;47.996;7.786;2022-07-22T00:28:23;99094.63;;;20.31;66.63
16544;BME280;8384;47.996;7.786;2022-07-22T00:30:48;99087.59;;;20.33;66.74
16544;BME280;8384;47.996;7.786;2022-07-22T00:33:14;99092.94;;;20.21;67.12
16544;BME280;8384;47.996;7.786;2022-07-22T00:35:39;99079.19;;;20.16;66.83
16544;BME280;8384;47.996;7.786;2022-07-22T00:38:04;99079.91;;;20.30;66.63
16544;BME280;8384;47.996;7.786;2022-07-22T00:40:30;99066.81;;;20.22;66.27
16544;BME280;8384;47.996;7.786;2022-07-22T00:42:55;99082.13;;;20.19;67.01
16544;BME280;8384;47.996;7.786;2022-07-22T00:45:21;99081.13;;;20.15;67.21
16544;BME280;8384;47.996;7.786;2022-07-22T00:47:46;99080.44;;;20.10;67.15
16544;BME280;8384;47.996;7.786;2022-07-22T00:50:11;99062.69;;;20.19;66.85
16544;BME280;8384;47.996;7.786;2022-07-22T00:52:37;99073.63;;;20.47;65.98
16544;BME280;8384;47.996;7.786;2022-07-22T00:55:04;99054.88;;;20.21;66.06
16544;BME280;8384;47.996;7.786;2022-07-22T00:57:29;99079.44;;;20.05;67.86
16544;BME280;8384;47.996;7.786;2022-07-22T00:59:55;99069.44;;;19.82;69.18
16544;BME280;8384;47.996;7.786;2022-07-22T01:02:21;99070.34;;;19.68;69.87
16544;BME280;8384;47.996;7.786;2022-07-22T01:04:46;99039.88;;;19.31;70.81
16544;BME280;8384;47.996;7.786;2022-07-22T01:07:11;99067.38;;;19.28;71.75
16544;BME280;8384;47.996;7.786;2022-07-22T01:09:37;99069.72;;;19.34;71.66
16544;BME280;8384;47.996;7.786;2022-07-22T01:12:03;99047.19;;;19.50;70.42
16544;BME280;8384;47.996;7.786;2022-07-22T01:14:28;99063.88;;;19.36;71.01
16544;BME280;8384;47.996;7.786;2022-07-22T01:16:54;99062.63;;;19.06;72.71
16544;BME280;8384;47.996;7.786;2022-07-22T01:19:19;99061.94;;;18.95;73.71
16544;BME280;8384;47.996;7.786;2022-07-22T01:21:44;99053.19;;;18.79;74.22
16544;BME280;8384;47.996;7.786;2022-07-22T01:24:10;99064.03;;;19.03;72.87
16544;BME280;8384;47.996;7.786;2022-07-22T01:26:35;99045.78;;;18.74;73.46
16544;BME280;8384;47.996;7.786;2022-07-22T01:29:02;99063.31;;;18.69;74.34
16544;BME280;8384;47.996;7.786;2022-07-22T01:31:27;99064.88;;;18.62;75.02
16544;BME280;8384;47.996;7.786;2022-07-22T01:33:54;99066.00;;;18.61;75.34
16544;BME280;8384;47.996;7.786;2022-07-22T01:36:20;99074.72;;;18.54;75.47
16544;BME280;8384;47.996;7.786;2022-07-22T01:38:45;99051.81;;;18.48;75.72
16544;BME280;8384;47.996;7.786;2022-07-22T01:41:11;99069.03;;;18.45;76.48
16544;BME280;8384;47.996;7.786;2022-07-22T01:43:36;99069.81;;;18.18;78.11
16544;BME280;8384;47.996;7.786;2022-07-22T01:46:02;99069.72;;;18.09;78.46
16544;BME280;8384;47.996;7.786;2022-07-22T01:48:28;99025.03;;;17.82;78.07
16544;BME280;8384;47.996;7.786;2022-07-22T01:50:53;99061.94;;;18.11;77.94
16544;BME280;8384;47.996;7.786;2022-07-22T01:53:19;99068.19;;;17.97;79.05
16544;BME280;8384;47.996;7.786;2022-07-22T01:55:44;99071.53;;;17.80;80.57
16544;BME280;8384;47.996;7.786;2022-07-22T01:58:09;99068.09;;;17.69;80.67
16544;BME280;8384;47.996;7.786;2022-07-22T02:00:35;99063.53;;;17.79;79.70
16544;BME280;8384;47.996;7.786;2022-07-22T02:03:00;99067.56;;;17.67;80.60
16544;BME280;8384;47.996;7.786;2022-07-22T02:05:26;99075.94;;;17.62;81.35
16544;BME280;8384;47.996;7.786;2022-07-22T02:07:52;99049.59;;;17.51;81.03
16544;BME280;8384;47.996;7.786;2022-07-22T02:10:17;99059.75;;;17.36;82.14
16544;BME280;8384;47.996;7.786;2022-07-22T02:12:43;99068.34;;;17.35;82.33
16544;BME280;8384;47.996;7.786;2022-07-22T02:15:08;99056.91;;;17.22;83.08
16544;BME280;8384;47.996;7.786;2022-07-22T02:17:35;99067.16;;;17.41;82.47
16544;BME280;8384;47.996;7.786;2022-07-22T02:20:02;99071.78;;;17.46;82.18
16544;BME280;8384;47.996;7.786;2022-07-22T02:22:28;99067.31;;;17.31;82.66
16544;BME280;8384;47.996;7.786;2022-07-22T02:24:53;99063.28;;;17.23;83.01
16544;BME280;8384;47.996;7.786;2022-07-22T02:27:19;99042.06;;;16.99;84.04
16544;BME280;8384;47.996;7.786;2022-07-22T02:29:45;99072.53;;;17.13;84.03
16544;BME280;8384;47.996;7.786;2022-07-22T02:32:11;99067.81;;;17.14;84.50
16544;BME280;8384;47.996;7.786;2022-07-22T02:34:36;99066.50;;;17.30;83.41
16544;BME280;8384;47.996;7.786;2022-07-22T02:37:02;99072.09;;;17.25;83.63
16544;BME280;8384;47.996;7.786;2022-07-22T02:39:27;99065.09;;;17.08;84.56
16544;BME280;8384;47.996;7.786;2022-07-22T02:41:53;99072.66;;;17.03;85.20
16544;BME280;8384;47.996;7.786;2022-07-22T02:44:18;99078.69;;;17.05;85.11
16544;BME280;8384;47.996;7.786;2022-07-22T02:46:43;99080.13;;;17.02;85.30
16544;BME280;8384;47.996;7.786;2022-07-22T02:49:09;99060.78;;;16.78;86.29
16544;BME280;8384;47.996;7.786;2022-07-22T02:51:34;99069.88;;;17.03;85.46
16544;BME280;8384;47.996;7.786;2022-07-22T02:53:59;99074.69;;;17.16;84.36
16544;BME280;8384;47.996;7.786;2022-07-22T02:56:25;99067.75;;;17.19;83.90
16544;BME280;8384;47.996;7.786;2022-07-22T02:58:50;99052.59;;;17.16;83.68
16544;BME280;8384;47.996;7.786;2022-07-22T03:01:18;99071.16;;;17.11;84.67
16544;BME280;8384;47.996;7.786;2022-07-22T03:03:44;99046.88;;;16.64;86.29
16544;BME280;8384;47.996;7.786;2022-07-22T03:06:09;99069.31;;;16.57;88.02
16544;BME280;8384;47.996;7.786;2022-07-22T03:08:36;99067.00;;;16.40;89.04
16544;BME280;8384;47.996;7.786;2022-07-22T03:11:02;99051.34;;;16.36;88.63
16544;BME280;8384;47.996;7.786;2022-07-22T03:13:27;99061.91;;;16.53;87.96
16544;BME280;8384;47.996;7.786;2022-07-22T03:15:52;99068.91;;;16.69;87.24
16544;BME280;8384;47.996;7.786;2022-07-22T03:18:17;99069.53;;;16.61;87.79
16544;BME280;8384;47.996;7.786;2022-07-22T03:20:43;99058.38;;;16.71;87.22
16544;BME280;8384;47.996;7.786;2022-07-22T03:23:08;99063.84;;;16.76;86.27
16544;BME280;8384;47.996;7.786;2022-07-22T03:25:33;99054.47;;;16.77;86.10
16544;BME280;8384;47.996;7.786;2022-07-22T03:27:59;99031.78;;;16.56;86.30
16544;BME280;8384;47.996;7.786;2022-07-22T03:30:24;99037.19;;;16.42;87.03
16544;BME280;8384;47.996;7.786;2022-07-22T03:32:49;99067.97;;;16.55;87.78
16544;BME280;8384;47.996;7.786;2022-07-22T03:35:15;99064.69;;;16.53;87.17
16544;BME280;8384;47.996;7.786;2022-07-22T03:37:41;99053.38;;;16.49;87.28
16544;BME280;8384;47.996;7.786;2022-07-22T03:40:07;99060.66;;;16.64;86.94
16544;BME280;8384;47.996;7.786;2022-07-22T03:42:33;99062.09;;;16.61;86.43
16544;BME280;8384;47.996;7.786;2022-07-22T03:44:58;99064.97;;;16.75;85.82
16544;BME280;8384;47.996;7.786;2022-07-22T03:47:23;99062.53;;;16.69;85.99
16544;BME280;8384;47.996;7.786;2022-07-22T03:49:49;99046.47;;;16.52;86.74
16544;BME280;8384;47.996;7.786;2022-07-22T03:52:15;99063.03;;;16.52;87.18
16544;BME280;8384;47.996;7.786;2022-07-22T03:54:41;99055.38;;;16.43;87.75
16544;BME280;8384;47.996;7.786;2022-07-22T03:57:07;99055.91;;;16.45;88.02
16544;BME280;8384;47.996;7.786;2022-07-22T03:59:32;99049.50;;;16.50;87.87
16544;BME280;8384;47.996;7.786;2022-07-22T04:01:58;99064.69;;;16.53;87.64
16544;BME280;8384;47.996;7.786;2022-07-22T04:04:23;99052.31;;;16.45;87.91
16544;BME280;8384;47.996;7.786;2022-07-22T04:06:48;99054.69;;;16.32;88.85
16544;BME280;8384;47.996;7.786;2022-07-22T04:09:16;99057.13;;;16.34;89.08
16544;BME280;8384;47.996;7.786;2022-07-22T04:11:42;99056.72;;;16.46;88.35
16544;BME280;8384;47.996;7.786;2022-07-22T04:14:07;99049.56;;;16.69;87.25
16544;BME280;8384;47.996;7.786;2022-07-22T04:16:32;99049.22;;;17.00;85.88
16544;BME280;8384;47.996;7.786;2022-07-22T04:18:57;99032.91;;;16.79;86.11
16544;BME280;8384;47.996;7.786;2022-07-22T04:21:23;99047.84;;;16.98;87.18
16544;BME280;8384;47.996;7.786;2022-07-22T04:23:48;99051.31;;;17.28;88.13
16544;BME280;8384;47.996;7.786;2022-07-22T04:26:13;99054.59;;;17.49;89.76
16544;BME280;8384;47.996;7.786;2022-07-22T04:28:38;99031.31;;;17.36;89.76
16544;BME280;8384;47.996;7.786;2022-07-22T04:31:04;99029.81;;;17.24;90.01
16544;BME280;8384;47.996;7.786;2022-07-22T04:33:29;99046.47;;;17.38;90.89
16544;BME280;8384;47.996;7.786;2022-07-22T04:35:55;99035.25;;;17.49;91.30
16544;BME280;8384;47.996;7.786;2022-07-22T04:38:20;99043.16;;;17.56;91.26
16544;BME280;8384;47.996;7.786;2022-07-22T04:40:45;99032.19;;;17.50;91.68
16544;BME280;8384;47.996;7.786;2022-07-22T04:43:11;99048.94;;;17.59;92.35
16544;BME280;8384;47.996;7.786;2022-07-22T04:45:36;99053.69;;;17.53;92.79
16544;BME280;8384;47.996;7.786;2022-07-22T04:48:01;99045.34;;;17.59;92.92
16544;BME280;8384;47.996;7.786;2022-07-22T04:50:26;99051.69;;;17.59;93.20
16544;BME280;8384;47.996;7.786;2022-07-22T04:52:52;99050.47;;;17.65;93.24
16544;BME280;8384;47.996;7.786;2022-07-22T04:55:17;99039.34;;;17.71;92.73
16544;BME280;8384;47.996;7.786;2022-07-22T04:57:42;99043.53;;;17.68;93.36
16544;BME280;8384;47.996;7.786;2022-07-22T05:00:08;99032.16;;;17.69;92.75
16544;BME280;8384;47.996;7.786;2022-07-22T05:02:33;99021.50;;;17.63;92.87
16544;BME280;8384;47.996;7.786;2022-07-22T05:04:58;99048.50;;;17.85;92.61
16544;BME280;8384;47.996;7.786;2022-07-22T05:07:24;99045.22;;;17.83;93.16
16544;BME280;8384;47.996;7.786;2022-07-22T05:09:49;99050.56;;;17.93;92.30
16544;BME280;8384;47.996;7.786;2022-07-22T05:12:14;99037.97;;;17.87;91.55
16544;BME280;8384;47.996;7.786;2022-07-22T05:14:40;99045.94;;;17.89;92.29
16544;BME280;8384;47.996;7.786;2022-07-22T05:17:09;99034.38;;;17.87;91.92
16544;BME280;8384;47.996;7.786;2022-07-22T05:19:38;99048.25;;;18.01;91.80
16544;BME280;8384;47.996;7.786;2022-07-22T05:22:03;99050.22;;;18.00;91.73
16544;BME280;8384;47.996;7.786;2022-07-22T05:24:29;99053.22;;;18.18;90.40
16544;BME280;8384;47.996;7.786;2022-07-22T05:26:54;99055.69;;;18.33;89.47
16544;BME280;8384;47.996;7.786;2022-07-22T05:29:19;99053.34;;;18.40;88.97
16544;BME280;8384;47.996;7.786;2022-07-22T05:31:44;99053.69;;;18.39;89.05
16544;BME280;8384;47.996;7.786;2022-07-22T05:34:10;99055.00;;;18.55;87.39
16544;BME280;8384;47.996;7.786;2022-07-22T05:36:35;99041.66;;;18.29;88.56
16544;BME280;8384;47.996;7.786;2022-07-22T05:39:01;99054.06;;;18.32;89.04
16544;BME280;8384;47.996;7.786;2022-07-22T05:41:26;99060.44;;;18.47;88.08
16544;BME280;8384;47.996;7.786;2022-07-22T05:43:51;99053.03;;;18.28;88.93
16544;BME280;8384;47.996;7.786;2022-07-22T05:46:16;99041.84;;;18.19;89.55
16544;BME280;8384;47.996;7.786;2022-07-22T05:48:42;99056.94;;;18.27;90.06
16544;BME280;8384;47.996;7.786;2022-07-22T05:51:14;99039.41;;;18.18;89.20
16544;BME280;8384;47.996;7.786;2022-07-22T05:53:40;99050.28;;;18.42;89.04
16544;BME280;8384;47.996;7.786;2022-07-22T05:56:07;99051.91;;;18.43;89.19
16544;BME280;8384;47.996;7.786;2022-07-22T05:58:33;99051.31;;;18.46;88.51
16544;BME280;8384;47.996;7.786;2022-07-22T06:00:58;99051.53;;;18.50;88.83
16544;BME280;8384;47.996;7.786;2022-07-22T06:03:24;99043.75;;;18.52;89.27
16544;BME280;8384;47.996;7.786;2022-07-22T06:05:49;99054.81;;;18.66;88.49
16544;BME280;8384;47.996;7.786;2022-07-22T06:08:15;99055.94;;;18.93;85.76
16544;BME280;8384;47.996;7.786;2022-07-22T06:10:40;99047.94;;;18.77;85.73
16544;BME280;8384;47.996;7.786;2022-07-22T06:13:06;99013.78;;;18.68;85.89
16544;BME280;8384;47.996;7.786;2022-07-22T06:15:31;99048.09;;;18.95;85.91
16544;BME280;8384;47.996;7.786;2022-07-22T06:17:56;99056.63;;;19.26;84.08
16544;BME280;8384;47.996;7.786;2022-07-22T06:20:22;99056.59;;;19.40;82.40
16544;BME280;8384;47.996;7.786;2022-07-22T06:22:47;99061.34;;;19.48;81.46
16544;BME280;8384;47.996;7.786;2022-07-22T06:25:13;99064.97;;;19.49;81.49
16544;BME280;8384;47.996;7.786;2022-07-22T06:27:38;99064.81;;;19.31;82.83
16544;BME280;8384;47.996;7.786;2022-07-22T06:30:04;99023.91;;;19.14;83.05
16544;BME280;8384;47.996;7.786;2022-07-22T06:32:29;99060.44;;;19.53;81.61
16544;BME280;8384;47.996;7.786;2022-07-22T06:34:54;99063.03;;;19.36;81.81
16544;BME280;8384;47.996;7.786;2022-07-22T06:37:19;99053.19;;;19.43;81.77
16544;BME280;8384;47.996;7.786;2022-07-22T06:39:45;99039.03;;;19.31;81.74
16544;BME280;8384;47.996;7.786;2022-07-22T06:42:12;99051.22;;;19.44;81.39
16544;BME280;8384;47.996;7.786;2022-07-22T06:44:37;99047.63;;;19.43;81.27
16544;BME280;8384;47.996;7.786;2022-07-22T06:47:02;99049.91;;;19.64;80.19
16544;BME280;8384;47.996;7.786;2022-07-22T06:49:28;99015.00;;;19.40;80.37
16544;BME280;8384;47.996;7.786;2022-07-22T06:51:53;99041.53;;;19.78;79.89
16544;BME280;8384;47.996;7.786;2022-07-22T06:54:18;99047.13;;;19.87;79.75
16544;BME280;8384;47.996;7.786;2022-07-22T06:56:44;99042.69;;;20.00;78.68
16544;BME280;8384;47.996;7.786;2022-07-22T06:59:10;99023.31;;;20.08;77.90
16544;BME280;8384;47.996;7.786;2022-07-22T07:01:35;99022.16;;;20.10;77.46
16544;BME280;8384;47.996;7.786;2022-07-22T07:04:01;99023.97;;;20.14;77.69
16544;BME280;8384;47.996;7.786;2022-07-22T07:06:27;99037.00;;;20.36;76.78
16544;BME280;8384;47.996;7.786;2022-07-22T07:08:52;99039.41;;;20.29;76.24
16544;BME280;8384;47.996;7.786;2022-07-22T07:11:17;99031.06;;;20.29;75.73
16544;BME280;8384;47.996;7.786;2022-07-22T07:13:43;99017.31;;;20.56;73.40
16544;BME280;8384;47.996;7.786;2022-07-22T07:16:08;99039.00;;;20.85;72.02
16544;BME280;8384;47.996;7.786;2022-07-22T07:18:34;99026.09;;;20.98;70.99
16544;BME280;8384;47.996;7.786;2022-07-22T07:20:59;99023.19;;;21.12;70.48
16544;BME280;8384;47.996;7.786;2022-07-22T07:23:24;99039.41;;;21.19;71.32
16544;BME280;8384;47.996;7.786;2022-07-22T07:25:50;99038.53;;;20.92;72.43
16544;BME280;8384;47.996;7.786;2022-07-22T07:28:15;99032.00;;;20.96;72.86
16544;BME280;8384;47.996;7.786;2022-07-22T07:30:40;99014.47;;;20.87;72.47
16544;BME280;8384;47.996;7.786;2022-07-22T07:33:06;99028.09;;;21.15;71.72
16544;BME280;8384;47.996;7.786;2022-07-22T07:35:31;99025.00;;;21.25;71.33
16544;BME280;8384;47.996;7.786;2022-07-22T07:37:57;99030.06;;;21.41;71.36
16544;BME280;8384;47.996;7.786;2022-07-22T07:40:22;99033.19;;;21.66;69.11
16544;BME280;8384;47.996;7.786;2022-07-22T07:42:47;99040.53;;;21.97;68.62
16544;BME280;8384;47.996;7.786;2022-07-22T07:45:12;99014.28;;;22.15;66.54
16544;BME280;8384;47.996;7.786;2022-07-22T07:47:38;99038.28;;;22.38;65.54
16544;BME280;8384;47.996;7.786;2022-07-22T07:50:05;99037.84;;;22.27;65.47
16544;BME280;8384;47.996;7.786;2022-07-22T07:52:37;99021.91;;;22.36;64.81
16544;BME280;8384;47.996;7.786;2022-07-22T07:55:02;99023.50;;;22.55;64.73
16544;BME280;8384;47.996;7.786;2022-07-22T07:57:27;99014.91;;;22.30;63.73
16544;BME280;8384;47.996;7.786;2022-07-22T07:59:53;99033.59;;;22.68;62.29
16544;BME280;8384;47.996;7.786;2022-07-22T08:02:18;99016.91;;;22.89;61.19
16544;BME280;8384;47.996;7.786;2022-07-22T08:04:43;99024.53;;;23.01;59.83
16544;BME280;8384;47.996;7.786;2022-07-22T08:07:09;99029.53;;;23.17;61.48
16544;BME280;8384;47.996;7.786;2022-07-22T08:09:34;99001.50;;;23.13;61.41
16544;BME280;8384;47.996;7.786;2022-07-22T08:12:04;99025.63;;;23.39;60.90
16544;BME280;8384;47.996;7.786;2022-07-22T08:14:29;99024.72;;;23.47;59.99
16544;BME280;8384;47.996;7.786;2022-07-22T08:16:54;99022.78;;;23.18;59.75
16544;BME280;8384;47.996;7.786;2022-07-22T08:19:20;99012.75;;;23.47;59.37
16544;BME280;8384;47.996;7.786;2022-07-22T08:21:45;98987.31;;;23.27;59.79
16544;BME280;8384;47.996;7.786;2022-07-22T08:24:11;99016.69;;;24.01;58.17
16544;BME280;8384;47.996;7.786;2022-07-22T08:26:37;99004.44;;;24.39;55.67
16544;BME280;8384;47.996;7.786;2022-07-22T08:29:03;98989.88;;;24.33;55.10
16544;BME280;8384;47.996;7.786;2022-07-22T08:31:30;98997.78;;;24.31;54.89
16544;BME280;8384;47.996;7.786;2022-07-22T08:33:57;98991.16;;;24.36;55.38
16544;BME280;8384;47.996;7.786;2022-07-22T08:36:24;98955.63;;;24.11;56.35
16544;BME280;8384;47.996;7.786;2022-07-22T08:38:49;99000.59;;;24.56;54.35
16544;BME280;8384;47.996;7.786;2022-07-22T08:41:15;98997.69;;;24.77;53.84
16544;BME280;8384;47.996;7.786;2022-07-22T08:43:41;98991.28;;;25.30;53.36
16544;BME280;8384;47.996;7.786;2022-07-22T08:46:07;98968.66;;;25.48;51.82
16544;BME280;8384;47.996;7.786;2022-07-22T08:48:32;98986.28;;;25.93;50.16
16544;BME280;8384;47.996;7.786;2022-07-22T08:51:01;98990.94;;;25.31;52.12
16544;BME280;8384;47.996;7.786;2022-07-22T08:53:26;98962.19;;;25.19;52.21
16544;BME280;8384;47.996;7.786;2022-07-22T08:55:51;98974.13;;;25.72;51.57
16544;BME280;8384;47.996;7.786;2022-07-22T08:58:17;98966.38;;;25.66;51.17
16544;BME280;8384;47.996;7.786;2022-07-22T09:00:42;98961.44;;;25.34;51.52
16544;BME280;8384;47.996;7.786;2022-07-22T09:03:18;98977.34;;;25.18;52.15
16544;BME280;8384;47.996;7.786;2022-07-22T09:05:45;98965.75;;;25.44;51.68
16544;BME280;8384;47.996;7.786;2022-07-22T09:08:11;98966.16;;;25.58;51.13
16544;BME280;8384;47.996;7.786;2022-07-22T09:10:36;98948.16;;;26.04;49.97
16544;BME280;8384;47.996;7.786;2022-07-22T09:13:06;98954.66;;;25.92;50.74
16544;BME280;8384;47.996;7.786;2022-07-22T09:15:33;98969.63;;;25.84;50.92
16544;BME280;8384;47.996;7.786;2022-07-22T09:18:01;98961.09;;;25.93;50.94
16544;BME280;8384;47.996;7.786;2022-07-22T09:20:28;98962.91;;;26.17;49.85
16544;BME280;8384;47.996;7.786;2022-07-22T09:22:54;98951.31;;;25.86;50.39
16544;BME280;8384;47.996;7.786;2022-07-22T09:28:13;98959.88;;;26.74;48.86
16544;BME280;8384;47.996;7.786;2022-07-22T09:30:50;98970.56;;;26.84;48.43
16544;BME280;8384;47.996;7.786;2022-07-22T09:33:16;98960.75;;;26.58;49.29
16544;BME280;8384;47.996;7.786;2022-07-22T09:35:43;98970.59;;;27.04;47.68
16544;BME280;8384;47.996;7.786;2022-07-22T09:38:10;98933.56;;;26.62;47.92
16544;BME280;8384;47.996;7.786;2022-07-22T09:40:37;98950.66;;;26.73;49.87
16544;BME280;8384;47.996;7.786;2022-07-22T09:43:11;98961.34;;;26.84;48.42
16544;BME280;8384;47.996;7.786;2022-07-22T09:48:12;98942.31;;;27.13;46.94
16544;BME280;8384;47.996;7.786;2022-07-22T09:50:38;98946.03;;;27.17;47.32
16544;BME280;8384;47.996;7.786;2022-07-22T09:53:03;98944.22;;;27.28;47.29
16544;BME280;8384;47.996;7.786;2022-07-22T09:55:29;98927.25;;;27.40;47.40
16544;BME280;8384;47.996;7.786;2022-07-22T09:57:56;98951.19;;;27.74;45.91
16544;BME280;8384;47.996;7.786;2022-07-22T10:00:27;98949.31;;;27.81;45.28
16544;BME280;8384;47.996;7.786;2022-07-22T10:02:58;98934.50;;;28.08;44.90
16544;BME280;8384;47.996;7.786;2022-07-22T10:05:30;98933.94;;;28.18;44.38
16544;BME280;8384;47.996;7.786;2022-07-22T10:07:57;98947.53;;;28.16;44.60
16544;BME280;8384;47.996;7.786;2022-07-22T10:10:25;98942.44;;;28.02;45.10
16544;BME280;8384;47.996;7.786;2022-07-22T10:12:52;98915.50;;;28.21;44.52
16544;BME280;8384;47.996;7.786;2022-07-22T10:15:19;98932.81;;;28.50;43.66
16544;BME280;8384;47.996;7.786;2022-07-22T10:17:46;98914.16;;;28.38;43.71
16544;BME280;8384;47.996;7.786;2022-07-22T10:20:17;98925.78;;;28.36;43.54
16544;BME280;8384;47.996;7.786;2022-07-22T10:25:09;98927.41;;;29.22;41.64
16544;BME280;8384;47.996;7.786;2022-07-22T10:30:23;98919.19;;;28.52;42.80
16544;BME280;8384;47.996;7.786;2022-07-22T10:33:21;98916.97;;;29.22;42.33
16544;BME280;8384;47.996;7.786;2022-07-22T10:36:00;98913.50;;;29.02;42.90
16544;BME280;8384;47.996;7.786;2022-07-22T10:38:27;98913.56;;;28.79;43.17
16544;BME280;8384;47.996;7.786;2022-07-22T10:41:04;98903.41;;;28.70;42.62
16544;BME280;8384;47.996;7.786;2022-07-22T10:43:51;98902.44;;;28.86;42.53
16544;BME280;8384;47.996;7.786;2022-07-22T10:46:16;98883.22;;;29.60;41.04
16544;BME280;8384;47.996;7.786;2022-07-22T10:51:12;98888.09;;;29.63;40.92
16544;BME280;8384;47.996;7.786;2022-07-22T10:54:00;98898.09;;;29.60;41.23
16544;BME280;8384;47.996;7.786;2022-07-22T10:56:35;98898.59;;;29.36;42.00
16544;BME280;8384;47.996;7.786;2022-07-22T10:59:11;98887.34;;;29.70;41.78
16544;BME280;8384;47.996;7.786;2022-07-22T11:01:43;98880.19;;;30.25;40.30
16544;BME280;8384;47.996;7.786;2022-07-22T11:04:16;98887.72;;;30.69;39.27
16544;BME280;8384;47.996;7.786;2022-07-22T11:06:43;98878.88;;;29.70;41.46
16544;BME280;8384;47.996;7.786;2022-07-22T11:09:11;98880.97;;;29.80;41.21
16544;BME280;8384;47.996;7.786;2022-07-22T11:14:31;98868.78;;;30.10;40.77
16544;BME280;8384;47.996;7.786;2022-07-22T11:17:05;98843.94;;;31.04;38.76
16544;BME280;8384;47.996;7.786;2022-07-22T11:19:32;98867.16;;;32.04;36.48
16544;BME280;8384;47.996;7.786;2022-07-22T11:22:06;98872.81;;;31.75;36.66
16544;BME280;8384;47.996;7.786;2022-07-22T11:24:32;98833.41;;;30.94;37.85
16544;BME280;8384;47.996;7.786;2022-07-22T11:26:58;98864.25;;;31.50;37.16
16544;BME280;8384;47.996;7.786;2022-07-22T11:29:33;98852.22;;;31.85;36.18
16544;BME280;8384;47.996;7.786;2022-07-22T11:31:59;98845.69;;;31.49;37.38
16544;BME280;8384;47.996;7.786;2022-07-22T11:34:26;98849.59;;;31.08;37.86
16544;BME280;8384;47.996;7.786;2022-07-22T11:36:51;98852.94;;;30.50;39.28
16544;BME280;8384;47.996;7.786;2022-07-22T11:39:21;98833.41;;;30.94;38.70
16544;BME280;8384;47.996;7.786;2022-07-22T11:41:47;98844.72;;;30.94;39.00
16544;BME280;8384;47.996;7.786;2022-07-22T11:44:18;98832.34;;;31.20;38.07
16544;BME280;8384;47.996;7.786;2022-07-22T11:46:43;98832.44;;;31.89;37.44
16544;BME280;8384;47.996;7.786;2022-07-22T11:49:09;98847.63;;;32.82;35.59
16544;BME280;8384;47.996;7.786;2022-07-22T11:51:37;98850.38;;;33.08;34.71
16544;BME280;8384;47.996;7.786;2022-07-22T11:54:04;98839.38;;;33.20;34.76
16544;BME280;8384;47.996;7.786;2022-07-22T11:56:30;98838.34;;;32.82;35.54
16544;BME280;8384;47.996;7.786;2022-07-22T11:58:55;98822.63;;;32.63;35.85
16544;BME280;8384;47.996;7.786;2022-07-22T12:01:26;98833.16;;;31.42;38.26
16544;BME280;8384;47.996;7.786;2022-07-22T12:04:08;98836.03;;;32.22;37.06
16544;BME280;8384;47.996;7.786;2022-07-22T12:06:36;98811.41;;;32.34;37.25
16544;BME280;8384;47.996;7.786;2022-07-22T12:09:11;98815.44;;;32.40;36.81
16544;BME280;8384;47.996;7.786;2022-07-22T12:11:41;98822.78;;;33.23;35.57
16544;BME280;8384;47.996;7.786;2022-07-22T12:14:13;98799.31;;;32.00;36.65
16544;BME280;8384;47.996;7.786;2022-07-22T12:16:39;98783.81;;;32.63;36.13
16544;BME280;8384;47.996;7.786;2022-07-22T12:19:07;98812.78;;;33.00;35.75
16544;BME280;8384;47.996;7.786;2022-07-22T12:21:54;98816.50;;;32.89;36.08
16544;BME280;8384;47.996;7.786;2022-07-22T12:24:27;98804.75;;;32.95;35.83
16544;BME280;8384;47.996;7.786;2022-07-22T12:26:55;98787.22;;;33.74;34.56
16544;BME280;8384;47.996;7.786;2022-07-22T12:29:31;98797.03;;;34.84;31.84
16544;BME280;8384;47.996;7.786;2022-07-22T12:32:06;98796.56;;;35.21;31.87
16544;BME280;8384;47.996;7.786;2022-07-22T12:34:40;98796.88;;;34.26;32.65
16544;BME280;8384;47.996;7.786;2022-07-22T12:42:18;98781.88;;;32.38;36.34
16544;BME280;8384;47.996;7.786;2022-07-22T12:45:15;98786.34;;;32.28;36.37
16544;BME280;8384;47.996;7.786;2022-07-22T12:50:29;98746.78;;;32.14;36.65
16544;BME280;8384;47.996;7.786;2022-07-22T12:53:06;98778.53;;;32.72;35.54
16544;BME280;8384;47.996;7.786;2022-07-22T12:55:34;98768.59;;;33.73;33.99
16544;BME280;8384;47.996;7.786;2022-07-22T12:58:00;98770.38;;;33.56;33.79
16544;BME280;8384;47.996;7.786;2022-07-22T13:00:28;98780.28;;;33.26;34.53
16544;BME280;8384;47.996;7.786;2022-07-22T13:02:54;98772.44;;;32.78;35.63
16544;BME280;8384;47.996;7.786;2022-07-22T13:05:21;98762.94;;;33.70;33.79
16544;BME280;8384;47.996;7.786;2022-07-22T13:07:47;98776.38;;;33.62;34.08
16544;BME280;8384;47.996;7.786;2022-07-22T13:10:14;98773.69;;;32.69;35.64
16544;BME280;8384;47.996;7.786;2022-07-22T13:12:40;98748.81;;;32.03;36.63
16544;BME280;8384;47.996;7.786;2022-07-22T13:15:06;98775.03;;;32.28;36.52
16544;BME280;8384;47.996;7.786;2022-07-22T13:17:32;98759.72;;;32.15;36.74
16544;BME280;8384;47.996;7.786;2022-07-22T13:19:57;98770.81;;;32.87;35.44
16544;BME280;8384;47.996;7.786;2022-07-22T13:22:22;98771.81;;;33.19;34.91
16544;BME280;8384;47.996;7.786;2022-07-22T13:24:48;98780.47;;;32.90;35.51
16544;BME280;8384;47.996;7.786;2022-07-22T13:27:13;98780.25;;;32.44;36.44
16544;BME280;8384;47.996;7.786;2022-07-22T13:29:39;98780.31;;;32.12;36.83
16544;BME280;8384;47.996;7.786;2022-07-22T13:32:05;98769.09;;;33.04;34.70